createdAt,value
2023-05-22T00:01:45.732Z,5.90
2023-05-22T00:04:12.312Z,6.00
2023-05-22T00:06:43.012Z,5.80
2023-05-22T00:09:09.541Z,6.10
2023-05-22T00:11:36.109Z,5.90
2023-05-22T00:14:02.644Z,6.00
2023-05-22T00:16:29.189Z,6.20
2023-05-22T00:18:55.843Z,6.20
2023-05-22T00:21:22.511Z,6.10
2023-05-22T00:23:49.000Z,6.40
2023-05-22T00:26:16.291Z,6.20
2023-05-22T00:28:43.261Z,6.30
2023-05-22T00:31:09.804Z,6.00
2023-05-22T00:33:36.427Z,6.10
2023-05-22T00:36:03.159Z,5.90
2023-05-22T00:38:31.535Z,5.90
2023-05-22T00:41:02.287Z,5.80
2023-05-22T00:43:28.837Z,5.80
2023-05-22T00:45:55.780Z,6.30
2023-05-22T00:48:23.057Z,6.10
2023-05-22T00:50:50.838Z,5.80
2023-05-22T00:53:20.684Z,5.80
2023-05-22T00:55:47.998Z,5.20
2023-05-22T00:58:18.388Z,5.40
2023-05-22T01:00:45.750Z,5.30
2023-05-22T01:03:12.814Z,5.60
2023-05-22T01:05:41.148Z,6.20
2023-05-22T01:08:08.512Z,6.00
2023-05-22T01:10:37.743Z,5.90
2023-05-22T01:13:29.662Z,5.70
2023-05-22T01:16:06.133Z,6.20
2023-05-22T01:18:46.220Z,6.00
2023-05-22T01:21:31.402Z,6.40
2023-05-22T01:24:13.396Z,6.10
2023-05-22T01:27:17.472Z,5.90
2023-05-22T01:29:57.076Z,6.50
2023-05-22T01:32:25.725Z,6.80
2023-05-22T01:34:55.468Z,6.20
2023-05-22T01:37:23.309Z,5.70
2023-05-22T01:39:51.896Z,6.20
2023-05-22T01:42:18.724Z,6.40
2023-05-22T01:44:45.546Z,5.70
2023-05-22T01:47:12.119Z,5.90
2023-05-22T01:49:38.900Z,5.90
2023-05-22T01:52:34.769Z,6.20
2023-05-22T01:55:09.426Z,5.90
2023-05-22T01:57:47.787Z,5.60
2023-05-22T02:00:16.586Z,5.70
2023-05-22T02:02:48.264Z,5.50
2023-05-22T02:05:18.161Z,5.50
2023-05-22T02:07:47.683Z,5.10
2023-05-22T02:10:16.611Z,5.30
2023-05-22T02:12:43.959Z,5.20
2023-05-22T02:15:11.081Z,5.40
2023-05-22T02:17:38.883Z,5.70
2023-05-22T02:20:07.141Z,5.40
2023-05-22T02:22:33.653Z,5.30
2023-05-22T02:25:00.219Z,5.90
2023-05-22T02:27:26.706Z,5.00
2023-05-22T02:29:53.210Z,5.10
2023-05-22T02:32:19.732Z,5.30
2023-05-22T02:34:46.249Z,5.40
2023-05-22T02:37:12.734Z,5.50
2023-05-22T02:39:39.266Z,4.90
2023-05-22T02:42:06.308Z,4.60
2023-05-22T02:44:32.845Z,5.20
2023-05-22T02:46:59.395Z,4.90
2023-05-22T02:49:25.943Z,5.50
2023-05-22T02:51:52.498Z,5.40
2023-05-22T02:54:19.181Z,5.70
2023-05-22T02:56:45.730Z,5.20
2023-05-22T02:59:12.287Z,4.80
2023-05-22T03:01:38.993Z,5.50
2023-05-22T03:04:05.911Z,5.40
2023-05-22T03:06:33.072Z,5.70
2023-05-22T03:08:59.615Z,5.20
2023-05-22T03:11:26.130Z,4.60
2023-05-22T03:13:52.617Z,4.90
2023-05-22T03:16:19.158Z,4.50
2023-05-22T03:18:45.751Z,4.80
2023-05-22T03:21:12.298Z,4.70
2023-05-22T03:23:38.816Z,4.50
2023-05-22T03:26:05.346Z,4.80
2023-05-22T03:28:31.863Z,4.50
2023-05-22T03:30:58.574Z,4.50
2023-05-22T03:33:25.135Z,4.60
2023-05-22T03:35:51.674Z,4.60
2023-05-22T03:38:18.155Z,4.30
2023-05-22T03:40:44.660Z,4.30
2023-05-22T03:43:11.186Z,4.90
2023-05-22T03:45:37.713Z,4.70
2023-05-22T03:48:04.373Z,4.80
2023-05-22T03:50:30.930Z,4.10
2023-05-22T03:52:57.444Z,4.30
2023-05-22T03:55:23.932Z,5.10
2023-05-22T03:57:50.487Z,4.40
2023-05-22T04:00:17.378Z,4.60
2023-05-22T04:02:43.993Z,4.80
2023-05-22T04:05:10.726Z,5.60
2023-05-22T04:07:37.315Z,4.70
2023-05-22T04:10:05.238Z,5.10
2023-05-22T04:12:31.847Z,4.80
2023-05-22T04:14:58.397Z,5.20
2023-05-22T04:17:31.057Z,4.80
2023-05-22T04:19:57.649Z,4.60
2023-05-22T04:22:24.448Z,4.50
2023-05-22T04:24:51.001Z,4.30
2023-05-22T04:27:17.563Z,4.50
2023-05-22T04:29:44.165Z,4.20
2023-05-22T04:32:10.942Z,4.60
2023-05-22T04:34:37.692Z,4.40
2023-05-22T04:37:05.337Z,4.40
2023-05-22T04:39:31.907Z,4.10
2023-05-22T04:41:58.486Z,4.00
2023-05-22T04:44:25.000Z,3.60
2023-05-22T04:46:51.591Z,4.00
2023-05-22T04:49:18.107Z,3.70
2023-05-22T04:51:44.689Z,4.30
2023-05-22T04:54:11.254Z,4.10
2023-05-22T04:56:37.755Z,4.20
2023-05-22T04:59:04.873Z,3.90
2023-05-22T05:01:33.205Z,4.10
2023-05-22T05:04:00.479Z,3.90
2023-05-22T05:06:27.203Z,4.40
2023-05-22T05:08:53.705Z,4.30
2023-05-22T05:11:20.354Z,4.30
2023-05-22T05:13:46.934Z,4.90
2023-05-22T05:16:13.503Z,4.00
2023-05-22T05:18:39.968Z,4.30
2023-05-22T05:21:06.472Z,3.80
2023-05-22T05:23:32.935Z,4.70
2023-05-22T05:25:59.444Z,4.00
2023-05-22T05:28:25.952Z,4.00
2023-05-22T05:30:52.492Z,3.80
2023-05-22T05:33:19.107Z,3.90
2023-05-22T05:35:45.661Z,16.60
2023-05-22T05:38:12.238Z,5.10
2023-05-22T05:40:38.936Z,4.90
2023-05-22T05:43:07.337Z,4.40
2023-05-22T05:45:35.633Z,4.00
2023-05-22T05:48:02.269Z,4.10
2023-05-22T05:50:28.936Z,3.80
2023-05-22T05:52:55.508Z,4.00
2023-05-22T05:55:22.272Z,4.40
2023-05-22T05:57:48.818Z,4.30
2023-05-22T06:00:15.525Z,4.40
2023-05-22T06:02:42.378Z,4.30
2023-05-22T06:05:09.339Z,3.80
2023-05-22T06:07:35.899Z,3.90
2023-05-22T06:10:02.467Z,4.50
2023-05-22T06:12:29.040Z,4.00
2023-05-22T06:14:55.530Z,4.40
2023-05-22T06:17:22.197Z,8.50
2023-05-22T06:19:48.770Z,4.60
2023-05-22T06:22:15.303Z,4.00
2023-05-22T06:24:41.870Z,3.70
2023-05-22T06:27:08.445Z,4.10
2023-05-22T06:29:34.969Z,4.00
2023-05-22T06:32:01.625Z,4.10
2023-05-22T06:34:28.247Z,3.40
2023-05-22T06:36:54.904Z,3.30
2023-05-22T06:39:21.617Z,3.60
2023-05-22T06:41:48.053Z,3.50
2023-05-22T06:44:14.581Z,4.10
2023-05-22T06:46:41.169Z,3.60
2023-05-22T06:49:07.738Z,4.00
2023-05-22T06:51:34.233Z,3.50
2023-05-22T06:54:00.875Z,3.40
2023-05-22T06:56:27.347Z,3.30
2023-05-22T06:58:53.922Z,3.40
2023-05-22T07:01:20.618Z,3.40
2023-05-22T07:03:47.169Z,3.60
2023-05-22T07:06:13.836Z,3.50
2023-05-22T07:08:40.377Z,3.20
2023-05-22T07:11:06.930Z,3.50
2023-05-22T07:13:33.687Z,3.90
2023-05-22T07:16:00.331Z,3.30
2023-05-22T07:18:26.958Z,3.20
2023-05-22T07:20:53.586Z,3.30
2023-05-22T07:23:20.156Z,3.40
2023-05-22T07:25:46.679Z,3.30
2023-05-22T07:28:13.202Z,3.80
2023-05-22T07:30:39.928Z,4.10
2023-05-22T07:33:06.843Z,4.90
2023-05-22T07:35:33.509Z,3.70
2023-05-22T07:38:00.035Z,3.50
2023-05-22T07:40:27.520Z,4.00
2023-05-22T07:42:54.131Z,4.40
2023-05-22T07:45:20.659Z,4.20
2023-05-22T07:47:47.452Z,3.60
2023-05-22T07:50:14.029Z,3.60
2023-05-22T07:52:40.524Z,3.40
2023-05-22T07:55:07.881Z,3.60
2023-05-22T07:57:34.451Z,3.60
2023-05-22T08:00:00.996Z,3.70
2023-05-22T08:02:27.621Z,3.70
2023-05-22T08:04:54.232Z,3.40
2023-05-22T08:07:20.786Z,4.00
2023-05-22T08:09:47.426Z,3.50
2023-05-22T08:12:13.946Z,3.50
2023-05-22T08:14:40.724Z,3.20
2023-05-22T08:17:07.209Z,3.90
2023-05-22T08:19:33.912Z,3.90
2023-05-22T08:22:00.529Z,3.80
2023-05-22T08:24:27.013Z,3.50
2023-05-22T08:26:53.617Z,4.10
2023-05-22T08:29:20.103Z,3.40
2023-05-22T08:31:46.709Z,3.40
2023-05-22T08:34:13.208Z,3.60
2023-05-22T08:36:39.715Z,3.50
2023-05-22T08:39:06.261Z,4.10
2023-05-22T08:41:32.883Z,3.50
2023-05-22T08:43:59.412Z,3.70
2023-05-22T08:46:26.099Z,3.20
2023-05-22T08:48:57.243Z,3.40
2023-05-22T08:51:28.370Z,3.70
2023-05-22T08:54:00.039Z,3.40
2023-05-22T08:56:28.660Z,3.30
2023-05-22T08:58:58.228Z,3.50
2023-05-22T09:01:25.091Z,4.20
2023-05-22T09:03:51.796Z,3.50
2023-05-22T09:06:18.488Z,3.30
2023-05-22T09:08:45.494Z,3.30
2023-05-22T09:11:12.023Z,3.60
2023-05-22T09:13:39.652Z,3.30
2023-05-22T09:16:11.259Z,3.30
2023-05-22T09:18:38.684Z,3.30
2023-05-22T09:21:11.325Z,3.30
2023-05-22T09:23:49.910Z,3.50
2023-05-22T09:26:16.452Z,4.00
2023-05-22T09:28:42.950Z,5.80
2023-05-22T09:31:09.575Z,3.40
2023-05-22T09:33:36.473Z,3.60
2023-05-22T09:36:03.088Z,3.70
2023-05-22T09:38:30.439Z,3.60
2023-05-22T09:40:57.416Z,3.40
2023-05-22T09:43:24.572Z,3.50
2023-05-22T09:45:57.265Z,3.80
2023-05-22T09:48:24.216Z,3.80
2023-05-22T09:50:53.689Z,3.80
2023-05-22T09:53:25.858Z,4.10
2023-05-22T09:55:54.086Z,3.50
2023-05-22T09:58:24.549Z,3.50
2023-05-22T10:00:51.143Z,4.10
2023-05-22T10:03:23.425Z,3.30
2023-05-22T10:05:55.149Z,3.30
2023-05-22T10:08:24.963Z,3.30
2023-05-22T10:10:52.467Z,3.60
2023-05-22T10:13:19.603Z,3.30
2023-05-22T10:15:47.971Z,3.40
2023-05-22T10:18:16.022Z,3.80
2023-05-22T10:20:42.800Z,3.70
2023-05-22T10:23:10.022Z,3.70
2023-05-22T10:25:39.853Z,3.70
2023-05-22T10:28:07.736Z,3.70
2023-05-22T10:30:40.782Z,5.60
2023-05-22T10:33:07.683Z,3.80
2023-05-22T10:35:44.402Z,3.90
2023-05-22T10:38:38.435Z,4.10
2023-05-22T10:41:05.388Z,3.50
2023-05-22T10:43:32.020Z,3.50
2023-05-22T10:46:07.176Z,3.90
2023-05-22T10:48:41.297Z,3.80
2023-05-22T10:51:08.105Z,4.00
2023-05-22T10:53:36.008Z,3.70
2023-05-22T10:56:13.890Z,3.60
2023-05-22T10:58:44.124Z,3.70
2023-05-22T11:01:11.718Z,4.30
2023-05-22T11:03:59.119Z,3.90
2023-05-22T11:06:40.945Z,3.60
2023-05-22T11:09:33.215Z,3.90
2023-05-22T11:12:18.218Z,4.60
2023-05-22T11:14:51.728Z,4.50
2023-05-22T11:17:22.033Z,3.60
2023-05-22T11:20:05.178Z,3.50
2023-05-22T11:22:41.230Z,3.40
2023-05-22T11:25:15.856Z,3.80
2023-05-22T11:27:42.548Z,3.30
2023-05-22T11:30:10.037Z,4.00
2023-05-22T11:32:41.299Z,3.30
2023-05-22T11:35:08.503Z,3.80
2023-05-22T11:37:39.401Z,4.30
2023-05-22T11:40:07.086Z,3.70
2023-05-22T11:42:33.709Z,3.60
2023-05-22T11:45:00.554Z,3.90
2023-05-22T11:47:28.216Z,3.90
2023-05-22T11:49:56.449Z,3.20
2023-05-22T11:52:23.302Z,3.60
2023-05-22T11:54:52.273Z,3.70
2023-05-22T11:57:19.359Z,3.40
2023-05-22T11:59:46.938Z,3.40
2023-05-22T12:02:13.820Z,4.40
2023-05-22T12:04:40.356Z,3.50
2023-05-22T12:07:07.905Z,3.70
2023-05-22T12:09:34.603Z,3.10
2023-05-22T12:12:01.440Z,3.60
2023-05-22T12:14:28.782Z,3.50
2023-05-22T12:16:57.969Z,3.30
2023-05-22T12:19:25.950Z,3.50
2023-05-22T12:21:53.641Z,3.30
2023-05-22T12:24:20.198Z,3.60
2023-05-22T12:26:51.060Z,4.00
2023-05-22T12:29:18.145Z,3.30
2023-05-22T12:31:45.613Z,3.50
2023-05-22T12:34:12.508Z,3.60
2023-05-22T12:36:40.663Z,3.30
2023-05-22T12:39:11.389Z,3.80
2023-05-22T12:41:38.699Z,3.60
2023-05-22T12:44:05.868Z,4.00
2023-05-22T12:46:33.263Z,3.80
2023-05-22T12:49:01.218Z,3.60
2023-05-22T12:51:29.301Z,3.80
2023-05-22T12:53:56.679Z,4.20
2023-05-22T12:56:23.494Z,3.90
2023-05-22T12:58:50.580Z,4.30
2023-05-22T13:01:17.341Z,3.80
2023-05-22T13:03:46.405Z,3.40
2023-05-22T13:06:12.964Z,3.60
2023-05-22T13:08:39.493Z,3.80
2023-05-22T13:11:06.052Z,3.60
2023-05-22T13:13:32.597Z,3.90
2023-05-22T13:15:59.148Z,4.60
2023-05-22T13:18:25.729Z,3.90
2023-05-22T13:20:52.260Z,3.90
2023-05-22T13:23:18.806Z,4.10
2023-05-22T13:25:45.524Z,4.70
2023-05-22T13:28:12.045Z,4.00
2023-05-22T13:30:38.742Z,3.80
2023-05-22T13:33:05.573Z,4.20
2023-05-22T13:35:32.088Z,4.10
2023-05-22T13:37:58.717Z,4.30
2023-05-22T13:40:25.416Z,4.60
2023-05-22T13:42:52.474Z,4.70
2023-05-22T13:45:19.132Z,4.50
2023-05-22T13:47:45.687Z,4.00
2023-05-22T13:50:12.246Z,4.30
2023-05-22T13:52:38.855Z,4.10
2023-05-22T13:55:05.791Z,4.50
2023-05-22T13:57:32.288Z,4.30
2023-05-22T13:59:58.793Z,4.20
2023-05-22T14:02:25.333Z,5.20
2023-05-22T14:04:52.069Z,4.80
2023-05-22T14:07:18.719Z,4.70
2023-05-22T14:09:45.427Z,4.50
2023-05-22T14:12:11.941Z,4.80
2023-05-22T14:14:38.457Z,4.30
2023-05-22T14:17:07.804Z,4.80
2023-05-22T14:19:34.704Z,4.70
2023-05-22T14:22:01.330Z,4.30
2023-05-22T14:24:27.854Z,4.70
2023-05-22T14:26:54.353Z,3.70
2023-05-22T14:29:21.120Z,3.70
2023-05-22T14:31:51.425Z,6.10
2023-05-22T14:34:18.485Z,5.90
2023-05-22T14:36:44.971Z,4.00
2023-05-22T14:39:11.530Z,4.70
2023-05-22T14:41:38.424Z,4.10
2023-05-22T14:44:05.041Z,4.30
2023-05-22T14:46:31.614Z,3.90
2023-05-22T14:48:58.207Z,4.10
2023-05-22T14:51:24.703Z,4.20
2023-05-22T14:53:51.228Z,4.20
2023-05-22T14:56:17.724Z,3.80
2023-05-22T14:58:44.300Z,3.90
2023-05-22T15:01:10.847Z,3.80
2023-05-22T15:03:37.370Z,4.60
2023-05-22T15:06:04.226Z,4.40
2023-05-22T15:08:30.716Z,4.40
2023-05-22T15:10:57.244Z,3.80
2023-05-22T15:13:23.761Z,4.70
2023-05-22T15:15:50.295Z,4.40
2023-05-22T15:18:16.951Z,4.50
2023-05-22T15:20:43.567Z,4.50
2023-05-22T15:23:10.083Z,4.70
2023-05-22T15:25:36.864Z,4.40
2023-05-22T15:28:04.356Z,4.10
2023-05-22T15:30:30.996Z,4.40
2023-05-22T15:32:57.550Z,4.20
2023-05-22T15:35:24.195Z,3.90
2023-05-22T15:37:50.724Z,4.20
2023-05-22T15:40:17.522Z,3.90
2023-05-22T15:42:44.119Z,3.90
2023-05-22T15:45:10.739Z,4.10
2023-05-22T15:47:37.296Z,4.50
2023-05-22T15:50:04.419Z,4.00
2023-05-22T15:52:30.927Z,3.70
2023-05-22T15:54:57.577Z,4.00
2023-05-22T15:57:24.226Z,4.80
2023-05-22T15:59:50.972Z,4.50
2023-05-22T16:02:18.364Z,4.70
2023-05-22T16:04:44.894Z,5.20
2023-05-22T16:07:11.831Z,4.50
2023-05-22T16:09:38.387Z,5.30
2023-05-22T16:12:05.036Z,4.80
2023-05-22T16:14:31.728Z,6.90
2023-05-22T16:16:58.228Z,4.60
2023-05-22T16:19:24.754Z,4.50
2023-05-22T16:21:51.298Z,4.60
2023-05-22T16:24:17.842Z,9.60
2023-05-22T16:26:44.376Z,4.60
2023-05-22T16:29:11.042Z,4.30
2023-05-22T16:31:37.612Z,4.30
2023-05-22T16:34:05.535Z,5.00
2023-05-22T16:36:32.092Z,4.50
2023-05-22T16:38:58.652Z,4.70
2023-05-22T16:41:25.181Z,4.20
2023-05-22T16:43:51.713Z,5.00
2023-05-22T16:46:18.640Z,4.80
2023-05-22T16:48:45.207Z,4.70
2023-05-22T16:51:11.758Z,4.70
2023-05-22T16:53:40.656Z,5.00
2023-05-22T16:56:07.488Z,5.10
2023-05-22T16:58:33.942Z,4.90
2023-05-22T17:01:00.498Z,4.50
2023-05-22T17:03:27.100Z,5.00
2023-05-22T17:05:53.863Z,4.80
2023-05-22T17:08:20.399Z,4.70
2023-05-22T17:10:46.949Z,4.20
2023-05-22T17:13:13.514Z,4.60
2023-05-22T17:15:40.192Z,4.30
2023-05-22T17:18:06.963Z,4.50
2023-05-22T17:20:33.570Z,4.60
2023-05-22T17:23:00.126Z,4.70
2023-05-22T17:25:26.691Z,5.00
2023-05-22T17:27:53.160Z,4.80
2023-05-22T17:30:19.789Z,4.90
2023-05-22T17:32:46.393Z,4.30
2023-05-22T17:35:13.187Z,4.50
2023-05-22T17:37:39.722Z,4.20
2023-05-22T17:40:06.939Z,4.80
2023-05-22T17:42:33.499Z,5.40
2023-05-22T17:45:00.025Z,4.50
2023-05-22T17:47:26.533Z,4.90
2023-05-22T17:49:53.266Z,5.90
2023-05-22T17:52:20.062Z,5.10
2023-05-22T17:54:46.688Z,4.80
2023-05-22T17:57:13.197Z,5.00
2023-05-22T17:59:40.533Z,4.70
2023-05-22T18:02:08.233Z,5.80
2023-05-22T18:04:36.046Z,6.80
2023-05-22T18:07:02.534Z,5.00
2023-05-22T18:09:29.086Z,5.50
2023-05-22T18:11:55.606Z,5.10
2023-05-22T18:14:22.128Z,4.90
2023-05-22T18:16:48.599Z,5.00
2023-05-22T18:19:15.220Z,5.10
2023-05-22T18:21:41.853Z,5.50
2023-05-22T18:24:08.638Z,5.60
2023-05-22T18:26:35.208Z,5.90
2023-05-22T18:29:01.724Z,6.80
2023-05-22T18:31:28.314Z,7.00
2023-05-22T18:33:54.960Z,6.90
2023-05-22T18:36:21.618Z,6.90
2023-05-22T18:38:48.229Z,6.50
2023-05-22T18:41:14.795Z,7.70
2023-05-22T18:43:41.373Z,7.00
2023-05-22T18:46:08.074Z,7.80
2023-05-22T18:48:34.656Z,7.40
2023-05-22T18:51:01.368Z,7.20
2023-05-22T18:53:27.931Z,7.90
2023-05-22T18:55:54.530Z,7.40
2023-05-22T18:58:21.146Z,7.10
2023-05-22T19:00:48.355Z,7.50
2023-05-22T19:03:14.985Z,7.40
2023-05-22T19:05:41.644Z,8.10
2023-05-22T19:08:08.324Z,9.20
2023-05-22T19:10:34.912Z,8.50
2023-05-22T19:13:01.458Z,8.60
2023-05-22T19:15:28.290Z,9.10
2023-05-22T19:17:54.963Z,10.20
2023-05-22T19:20:22.976Z,10.00
2023-05-22T19:22:49.590Z,10.10
2023-05-22T19:25:16.062Z,9.30
2023-05-22T19:27:42.579Z,9.50
2023-05-22T19:30:09.407Z,8.80
2023-05-22T19:32:36.013Z,8.90
2023-05-22T19:35:02.552Z,8.20
2023-05-22T19:37:29.256Z,8.10
2023-05-22T19:39:55.918Z,8.90
2023-05-22T19:42:22.496Z,8.40
2023-05-22T19:44:48.984Z,8.60
2023-05-22T19:47:15.496Z,9.00
2023-05-22T19:49:42.020Z,8.90
2023-05-22T19:52:08.542Z,8.80
2023-05-22T19:54:35.237Z,8.50
2023-05-22T19:57:02.913Z,8.40
2023-05-22T19:59:29.495Z,7.50
2023-05-22T20:01:56.103Z,8.70
2023-05-22T20:04:22.667Z,8.50
2023-05-22T20:06:49.216Z,8.60
2023-05-22T20:09:15.837Z,9.30
2023-05-22T20:11:42.469Z,8.60
2023-05-22T20:14:09.028Z,9.70
2023-05-22T20:16:35.728Z,9.10
2023-05-22T20:19:02.324Z,8.70
2023-05-22T20:21:28.866Z,8.80
2023-05-22T20:23:55.379Z,9.40
2023-05-22T20:26:21.938Z,9.40
2023-05-22T20:28:48.492Z,8.30
2023-05-22T20:31:15.158Z,9.80
2023-05-22T20:33:41.681Z,9.40
2023-05-22T20:36:08.382Z,9.00
2023-05-22T20:38:35.021Z,9.30
2023-05-22T20:41:02.749Z,9.20
2023-05-22T20:43:29.292Z,9.70
2023-05-22T20:45:57.465Z,8.80
2023-05-22T20:48:24.057Z,9.10
2023-05-22T20:50:50.785Z,9.80
2023-05-22T20:53:17.554Z,9.00
2023-05-22T20:55:44.190Z,9.10
2023-05-22T20:58:11.047Z,8.80
2023-05-22T21:00:37.615Z,9.30
2023-05-22T21:03:04.617Z,8.60
2023-05-22T21:05:31.285Z,8.60
2023-05-22T21:07:57.875Z,8.20
2023-05-22T21:10:24.409Z,9.20
2023-05-22T21:12:50.924Z,8.70
2023-05-22T21:15:17.606Z,9.60
2023-05-22T21:17:44.270Z,8.50
2023-05-22T21:20:11.304Z,8.20
2023-05-22T21:22:37.902Z,8.10
2023-05-22T21:25:04.844Z,8.00
2023-05-22T21:27:31.376Z,8.20
2023-05-22T21:29:57.921Z,7.70
2023-05-22T21:32:24.485Z,8.70
2023-05-22T21:34:51.044Z,8.20
2023-05-22T21:37:17.670Z,8.30
2023-05-22T21:39:44.231Z,7.70
2023-05-22T21:42:10.779Z,8.40
2023-05-22T21:44:37.706Z,7.80
2023-05-22T21:47:04.466Z,8.00
2023-05-22T21:49:31.004Z,8.30
2023-05-22T21:51:57.531Z,8.20
2023-05-22T21:54:24.064Z,8.20
2023-05-22T21:56:50.652Z,8.50
2023-05-22T21:59:17.220Z,8.40
2023-05-22T22:01:43.866Z,9.80
2023-05-22T22:04:10.509Z,9.20
2023-05-22T22:06:37.130Z,9.30
2023-05-22T22:09:03.810Z,9.60
2023-05-22T22:11:30.386Z,9.80
2023-05-22T22:13:56.996Z,9.90
2023-05-22T22:16:23.575Z,8.70
2023-05-22T22:18:50.280Z,10.10
2023-05-22T22:21:17.420Z,9.30
2023-05-22T22:23:43.946Z,8.80
2023-05-22T22:26:10.504Z,9.30
2023-05-22T22:28:37.112Z,9.00
2023-05-22T22:31:03.774Z,8.90
2023-05-22T22:33:30.270Z,8.30
2023-05-22T22:35:56.802Z,9.10
2023-05-22T22:38:23.310Z,9.30
2023-05-22T22:40:49.806Z,9.40
2023-05-22T22:43:16.419Z,9.60
2023-05-22T22:45:43.103Z,9.90
2023-05-22T22:48:09.837Z,9.70
2023-05-22T22:50:36.468Z,8.50
2023-05-22T22:53:03.006Z,8.30
2023-05-22T22:55:29.654Z,8.80
2023-05-22T22:57:56.334Z,8.60
2023-05-22T23:00:22.860Z,8.40
2023-05-22T23:02:49.509Z,8.30
2023-05-22T23:05:16.063Z,8.30
2023-05-22T23:07:42.832Z,8.50
2023-05-22T23:10:09.737Z,8.60
2023-05-22T23:12:36.365Z,8.60
2023-05-22T23:15:03.467Z,8.80
2023-05-22T23:17:30.035Z,8.50
2023-05-22T23:19:56.699Z,9.10
2023-05-22T23:22:23.455Z,8.30
2023-05-22T23:24:50.093Z,7.50
2023-05-22T23:27:16.606Z,8.60
2023-05-22T23:29:43.130Z,8.30
2023-05-22T23:32:10.470Z,8.40
2023-05-22T23:34:37.897Z,7.80
2023-05-22T23:37:04.662Z,8.40
2023-05-22T23:39:31.193Z,8.00
2023-05-22T23:41:58.207Z,8.30
2023-05-22T23:44:24.709Z,8.30
2023-05-22T23:46:51.397Z,8.00
2023-05-22T23:49:17.994Z,8.80
2023-05-22T23:51:44.517Z,10.00
2023-05-22T23:54:11.050Z,8.90
2023-05-22T23:56:37.685Z,9.30
2023-05-22T23:59:04.535Z,8.80
